Time;durP1;ratioP1;P1;durP2;ratioP2;P2;SDS_P1;SDS_P2;PMS_P1;PMS_P2;Temp;Humidity;BMP_temperature;BMP_pressure;BME280_temperature;BME280_humidity;BME280_pressure;Samples;Min_cycle;Max_cycle;Signal;HPM_P1;HPM_P2
2022/07/15 00:00:37;;;;;;;9.13;2.38;;;;;18.00;96612.00;;;;8281186;28;20248;-71
2022/07/15 00:04:40;;;;;;;4.00;2.42;;;;;17.90;96624.00;;;;8292523;28;20240;-72
2022/07/15 00:08:43;;;;;;;5.03;2.63;;;;;17.80;96623.00;;;;8308930;28;20304;-71
2022/07/15 00:12:49;;;;;;;7.55;2.63;;;;;17.70;96633.00;;;;8293202;28;20236;-71
2022/07/15 00:16:53;;;;;;;7.45;3.08;;;;;17.70;96638.00;;;;8282158;28;20232;-72
2022/07/15 00:20:57;;;;;;;10.18;2.55;;;;;17.60;96643.00;;;;8281331;28;20229;-71
2022/07/15 00:25:00;;;;;;;8.27;2.80;;;;;17.60;96628.00;;;;8271990;28;20225;-71
2022/07/15 00:29:03;;;;;;;12.43;2.78;;;;;17.50;96627.00;;;;8288963;28;20774;-71
2022/07/15 00:33:09;;;;;;;9.45;2.40;;;;;17.50;96634.00;;;;8284543;28;20233;-71
2022/07/15 00:37:13;;;;;;;5.03;2.28;;;;;17.40;96643.00;;;;8299020;28;20597;-72
2022/07/15 00:41:16;;;;;;;7.95;3.13;;;;;17.30;96645.00;;;;8291179;28;20234;-71
2022/07/15 00:45:21;;;;;;;6.65;2.65;;;;;17.20;96638.00;;;;8290119;28;20226;-69
2022/07/15 00:49:26;;;;;;;4.10;2.78;;;;;17.10;96638.00;;;;8282312;28;20239;-71
2022/07/15 00:53:32;;;;;;;5.05;2.85;;;;;17.00;96635.00;;;;8282847;28;20660;-70
2022/07/15 00:57:38;;;;;;;5.95;2.75;;;;;16.90;96638.00;;;;8293902;28;20228;-71
2022/07/15 01:01:42;;;;;;;4.50;2.70;;;;;16.80;96637.00;;;;8284058;28;20257;-71
2022/07/15 01:05:48;;;;;;;4.10;2.80;;;;;16.60;96638.00;;;;8285515;28;20225;-71
2022/07/15 01:09:51;;;;;;;7.03;2.70;;;;;16.40;96629.00;;;;8304710;28;20347;-71
2022/07/15 01:13:55;;;;;;;10.10;2.80;;;;;16.20;96632.00;;;;8285886;28;20328;-71
2022/07/15 01:18:00;;;;;;;5.22;2.85;;;;;16.00;96634.00;;;;8295924;28;20238;-70
2022/07/15 01:22:05;;;;;;;10.35;3.20;;;;;15.80;96647.00;;;;8292842;28;20251;-70
2022/07/15 01:26:08;;;;;;;5.43;3.08;;;;;15.70;96645.00;;;;8292842;28;20958;-70
2022/07/15 01:30:12;;;;;;;4.55;2.97;;;;;15.40;96643.00;;;;8282420;28;20231;-70
2022/07/15 01:34:15;;;;;;;8.50;2.85;;;;;15.10;96643.00;;;;8282414;28;20312;-70
2022/07/15 01:38:20;;;;;;;5.07;2.50;;;;;15.10;96640.00;;;;8279390;28;20243;-71
2022/07/15 01:42:23;;;;;;;4.50;2.80;;;;;15.10;96649.00;;;;8283790;28;20582;-71
2022/07/15 01:46:26;;;;;;;5.60;3.17;;;;;15.00;96647.00;;;;8281725;28;20571;-70
2022/07/15 01:50:29;;;;;;;4.53;2.35;;;;;14.90;96641.00;;;;8279692;28;22013;-69
2022/07/15 01:54:34;;;;;;;7.30;3.33;;;;;14.90;96644.00;;;;8279899;28;20233;-69
2022/07/15 01:58:37;;;;;;;8.07;2.90;;;;;14.80;96650.00;;;;8285694;28;20230;-72
2022/07/15 02:02:40;;;;;;;4.43;3.03;;;;;14.70;96658.00;;;;8278779;28;20230;-69
2022/07/15 02:06:45;;;;;;;7.50;2.58;;;;;14.60;96655.00;;;;8278868;28;20930;-71
2022/07/15 02:10:50;;;;;;;3.38;2.65;;;;;14.60;96661.00;;;;8278548;28;20419;-71
2022/07/15 02:14:54;;;;;;;8.20;2.65;;;;;14.50;96662.00;;;;8280190;28;20232;-71
2022/07/15 02:18:57;;;;;;;7.30;3.08;;;;;14.30;96659.00;;;;8289923;28;20233;-70
2022/07/15 02:23:01;;;;;;;4.72;2.88;;;;;14.30;96659.00;;;;8290392;28;20301;-71
2022/07/15 02:27:06;;;;;;;5.70;3.17;;;;;14.10;96656.00;;;;8290978;28;20231;-71
2022/07/15 02:31:09;;;;;;;3.50;2.97;;;;;14.10;96673.00;;;;8281518;28;20231;-70
2022/07/15 02:35:14;;;;;;;7.82;3.28;;;;;14.00;96666.00;;;;8279095;28;20298;-70
2022/07/15 02:39:17;;;;;;;11.60;3.00;;;;;13.80;96674.00;;;;8280862;28;20689;-70
2022/07/15 02:43:22;;;;;;;8.30;2.92;;;;;13.70;96670.00;;;;8282882;28;20800;-70
2022/07/15 02:47:25;;;;;;;7.93;2.85;;;;;13.60;96673.00;;;;8278235;28;20232;-70
2022/07/15 02:51:29;;;;;;;6.15;3.72;;;;;13.60;96675.00;;;;8274390;28;20304;-71
2022/07/15 02:55:32;;;;;;;10.68;3.13;;;;;13.50;96672.00;;;;8267468;28;20665;-69
2022/07/15 02:59:37;;;;;;;6.75;2.95;;;;;13.50;96675.00;;;;8291439;28;20225;-70
2022/07/15 03:03:40;;;;;;;3.20;2.63;;;;;13.40;96682.00;;;;8292467;23;20229;-70
2022/07/15 03:07:43;;;;;;;6.07;3.05;;;;;13.40;96676.00;;;;8277881;28;20273;-71
2022/07/15 03:11:46;;;;;;;6.03;3.03;;;;;13.30;96682.00;;;;8279638;28;20226;-71
2022/07/15 03:15:51;;;;;;;2.97;2.60;;;;;13.20;96680.00;;;;8279363;28;20226;-71
2022/07/15 03:19:55;;;;;;;6.72;2.78;;;;;13.20;96691.00;;;;8274138;28;20240;-72
2022/07/15 03:23:58;;;;;;;7.57;3.15;;;;;13.10;96697.00;;;;8287913;28;20236;-71
2022/07/15 03:28:01;;;;;;;3.63;2.80;;;;;13.10;96699.00;;;;8282545;28;20231;-71
2022/07/15 03:32:06;;;;;;;10.30;3.53;;;;;13.10;96699.00;;;;8285802;28;20253;-71
2022/07/15 03:36:10;;;;;;;6.88;3.10;;;;;13.10;96702.00;;;;8284973;28;20622;-71
2022/07/15 03:40:13;;;;;;;4.72;3.15;;;;;13.10;96703.00;;;;8266934;28;20247;-72
2022/07/15 03:44:17;;;;;;;6.23;3.10;;;;;13.10;96712.00;;;;8266560;28;20313;-71
2022/07/15 03:48:22;;;;;;;7.93;3.55;;;;;13.10;96708.00;;;;8279678;28;20230;-73
2022/07/15 03:52:25;;;;;;;4.78;3.08;;;;;13.20;96713.00;;;;8281242;28;20816;-72
2022/07/15 03:56:29;;;;;;;6.88;3.15;;;;;13.30;96720.00;;;;8271951;28;20706;-73
2022/07/15 04:00:32;;;;;;;4.72;3.30;;;;;13.40;96712.00;;;;8273734;28;20298;-72
2022/07/15 04:04:36;;;;;;;8.27;3.10;;;;;13.60;96707.00;;;;8235110;28;20235;-70
2022/07/15 04:08:40;;;;;;;2.85;2.65;;;;;14.00;96710.00;;;;8233382;28;20731;-71
2022/07/15 04:12:43;;;;;;;6.18;2.67;;;;;14.40;96708.00;;;;8242154;28;20875;-71
2022/07/15 04:16:47;;;;;;;4.78;2.53;;;;;14.70;96710.00;;;;8252597;28;20232;-71
2022/07/15 04:20:52;;;;;;;6.53;2.60;;;;;15.00;96704.00;;;;8247612;28;20228;-71
2022/07/15 04:24:55;;;;;;;6.95;2.70;;;;;15.20;96699.00;;;;8261604;28;20239;-72
2022/07/15 04:28:59;;;;;;;7.63;2.72;;;;;15.50;96699.00;;;;8235390;28;20272;-71
2022/07/15 04:33:02;;;;;;;9.82;2.50;;;;;15.70;96706.00;;;;8246090;28;20289;-71
2022/07/15 04:37:06;;;;;;;6.80;2.80;;;;;15.80;96700.00;;;;8250527;28;20230;-71
2022/07/15 04:41:10;;;;;;;12.63;2.95;;;;;16.00;96700.00;;;;8258419;28;20236;-71
2022/07/15 04:45:13;;;;;;;7.13;2.53;;;;;16.20;96711.00;;;;8249431;28;20307;-70
2022/07/15 04:53:39;;;;;;;5.50;2.55;;;;;16.70;96709.00;;;;8242289;28;20890;-70
2022/07/15 04:57:42;;;;;;;4.32;2.33;;;;;17.00;96706.00;;;;8257307;28;20252;-71
2022/07/15 05:01:45;;;;;;;6.22;2.63;;;;;17.30;96718.00;;;;8230368;28;20288;-71
2022/07/15 05:05:49;;;;;;;5.97;2.45;;;;;17.60;96726.00;;;;8245131;28;20222;-71
2022/07/15 05:09:54;;;;;;;6.50;2.55;;;;;18.00;96720.00;;;;8253592;28;20305;-72
2022/07/15 05:13:57;;;;;;;7.07;2.42;;;;;18.50;96722.00;;;;8255065;28;20656;-72
2022/07/15 05:18:00;;;;;;;5.55;2.28;;;;;18.80;96725.00;;;;8237713;28;21422;-71
2022/07/15 05:22:04;;;;;;;2.70;1.98;;;;;19.10;96729.00;;;;8249767;28;20237;-71
2022/07/15 05:26:11;;;;;;;7.97;2.13;;;;;19.30;96729.00;;;;8245133;28;20226;-69
2022/07/15 05:30:15;;;;;;;8.45;2.13;;;;;19.20;96729.00;;;;8244738;28;20237;-72
2022/07/15 05:34:19;;;;;;;5.97;2.30;;;;;19.00;96739.00;;;;8244726;28;20218;-71
2022/07/15 05:38:22;;;;;;;6.55;2.17;;;;;18.80;96734.00;;;;8239456;28;20306;-72
2022/07/15 05:42:27;;;;;;;6.85;2.17;;;;;18.70;96744.00;;;;8252976;28;20254;-71
2022/07/15 05:46:30;;;;;;;6.00;2.17;;;;;18.80;96745.00;;;;8249389;28;20222;-71
2022/07/15 05:50:33;;;;;;;7.32;2.20;;;;;18.90;96746.00;;;;8245535;28;20238;-72
2022/07/15 05:54:37;;;;;;;7.07;2.70;;;;;19.10;96749.00;;;;8251487;28;20250;-72
2022/07/15 05:58:41;;;;;;;2.65;1.95;;;;;19.30;96747.00;;;;8240514;28;20566;-71
2022/07/15 06:02:44;;;;;;;7.57;2.30;;;;;19.70;96755.00;;;;8243864;28;20321;-71
2022/07/15 06:06:48;;;;;;;6.85;1.90;;;;;20.00;96754.00;;;;8242667;28;20238;-72
2022/07/15 06:10:51;;;;;;;5.75;1.90;;;;;20.40;96753.00;;;;8237698;28;20303;-72
2022/07/15 06:14:56;;;;;;;6.35;2.40;;;;;20.90;96760.00;;;;8240279;28;20226;-73
2022/07/15 06:18:59;;;;;;;4.47;2.25;;;;;21.40;96769.00;;;;8246452;28;20222;-74
2022/07/15 06:23:02;;;;;;;8.85;2.30;;;;;21.60;96782.00;;;;8242861;28;20318;-76
2022/07/15 06:27:06;;;;;;;4.57;1.85;;;;;21.40;96776.00;;;;8242178;28;20294;-70
2022/07/15 06:31:11;;;;;;;4.32;2.05;;;;;21.30;96774.00;;;;8242653;28;20306;-72
2022/07/15 06:35:14;;;;;;;3.78;1.98;;;;;21.60;96779.00;;;;8240270;28;20329;-70
2022/07/15 06:39:17;;;;;;;6.22;2.20;;;;;22.20;96782.00;;;;8241372;28;20230;-73
2022/07/15 06:43:21;;;;;;;4.57;1.90;;;;;23.00;96785.00;;;;8235533;28;20315;-73
2022/07/15 06:47:25;;;;;;;2.42;1.88;;;;;23.40;96787.00;;;;8250489;28;20253;-72
2022/07/15 06:51:29;;;;;;;4.85;2.10;;;;;23.30;96784.00;;;;8238078;28;20309;-70
2022/07/15 06:55:32;;;;;;;6.85;2.20;;;;;23.50;96786.00;;;;8242764;28;20230;-75
2022/07/15 06:59:36;;;;;;;8.07;1.85;;;;;23.60;96790.00;;;;8241404;28;20365;-73
2022/07/15 07:03:40;;;;;;;5.28;2.10;;;;;23.90;96783.00;;;;8244587;28;20225;-73
2022/07/15 07:08:02;;;;;;;8.50;2.00;;;;;24.30;96783.00;;;;8233555;28;20254;-71
2022/07/15 07:12:06;;;;;;;7.60;1.98;;;;;24.80;96782.00;;;;8242817;28;20234;-73
2022/07/15 07:16:09;;;;;;;3.38;1.70;;;;;24.80;96783.00;;;;8242072;28;20313;-71
2022/07/15 07:20:14;;;;;;;3.90;2.15;;;;;24.60;96789.00;;;;8234171;28;20687;-74
2022/07/15 07:24:17;;;;;;;3.20;2.00;;;;;24.70;96791.00;;;;8246827;28;20246;-73
2022/07/15 07:28:21;;;;;;;3.10;1.95;;;;;24.80;96789.00;;;;8244618;28;20334;-72
2022/07/15 07:32:25;;;;;;;3.13;1.50;;;;;25.00;96785.00;;;;8237549;28;20578;-71
2022/07/15 07:36:33;;;;;;;2.63;1.45;;;;;25.10;96785.00;;;;8237315;28;20650;-71
2022/07/15 07:40:36;;;;;;;4.88;1.92;;;;;25.00;96782.00;;;;8238956;28;20230;-69
2022/07/15 07:44:39;;;;;;;4.80;1.75;;;;;24.80;96779.00;;;;8248065;28;20842;-69
2022/07/15 07:48:42;;;;;;;4.30;1.70;;;;;25.10;96787.00;;;;8243264;28;20354;-70
2022/07/15 07:52:47;;;;;;;5.72;2.10;;;;;25.40;96782.00;;;;8247295;28;20226;-68
2022/07/15 07:56:50;;;;;;;4.68;2.00;;;;;25.50;96776.00;;;;8237838;28;20580;-71
2022/07/15 08:01:00;;;;;;;4.72;1.75;;;;;25.60;96773.00;;;;8242239;28;20224;-70
2022/07/15 08:05:05;;;;;;;3.47;1.88;;;;;25.80;96770.00;;;;8243648;28;21944;-70
2022/07/15 08:09:13;;;;;;;4.40;1.70;;;;;26.20;96767.00;;;;8224118;28;20232;-70
2022/07/15 08:13:18;;;;;;;5.97;2.05;;;;;27.00;96769.00;;;;8253212;28;20265;-71
2022/07/15 08:17:24;;;;;;;6.50;2.08;;;;;27.30;96772.00;;;;8229116;28;20230;-68
2022/07/15 08:21:29;;;;;;;3.45;2.10;;;;;27.50;96780.00;;;;8244452;28;21132;-69
2022/07/15 08:25:36;;;;;;;3.92;1.60;;;;;28.90;96771.00;;;;8246718;28;20309;-69
2022/07/15 08:29:39;;;;;;;3.90;2.15;;;;;29.50;96772.00;;;;8250521;28;20238;-70
2022/07/15 08:33:43;;;;;;;5.88;1.90;;;;;29.10;96781.00;;;;8252524;28;20341;-74
2022/07/15 08:37:46;;;;;;;2.75;1.85;;;;;28.30;96774.00;;;;8253524;28;20238;-74
2022/07/15 08:41:52;;;;;;;2.40;1.60;;;;;28.90;96775.00;;;;8236999;28;20855;-74
2022/07/15 08:46:02;;;;;;;3.10;2.05;;;;;28.80;96775.00;;;;8236842;28;21414;-73
2022/07/15 08:50:12;;;;;;;4.85;2.20;;;;;28.20;96770.00;;;;8245362;28;20781;-74
2022/07/15 08:54:16;;;;;;;3.35;1.98;;;;;28.50;96769.00;;;;8253734;28;20254;-75
2022/07/15 08:58:22;;;;;;;5.60;2.10;;;;;29.40;96770.00;;;;8236999;28;20241;-74
2022/07/15 09:02:46;;;;;;;3.25;1.60;;;;;29.80;96767.00;;;;8246864;28;20298;-73
2022/07/15 09:06:51;;;;;;;3.78;2.13;;;;;29.10;96780.00;;;;8239466;28;20229;-75
2022/07/15 09:10:58;;;;;;;3.08;1.98;;;;;28.40;96774.00;;;;8241559;28;20226;-72
2022/07/15 09:15:02;;;;;;;1.63;1.50;;;;;29.10;96765.00;;;;8240301;28;20306;-74
2022/07/15 09:19:06;;;;;;;5.40;2.22;;;;;30.20;96767.00;;;;8247573;28;20977;-74
2022/07/15 09:23:11;;;;;;;2.47;1.98;;;;;31.60;96766.00;;;;8236634;28;20230;-73
2022/07/15 09:27:28;;;;;;;4.20;2.00;;;;;32.30;96753.00;;;;8250925;28;20308;-73
2022/07/15 09:36:04;;;;;;;2.05;1.70;;;;;30.20;96766.00;;;;8243124;28;20329;-73
2022/07/15 09:40:08;;;;;;;3.65;2.00;;;;;29.90;96759.00;;;;8241135;28;20258;-73
2022/07/15 09:44:14;;;;;;;2.45;1.70;;;;;30.50;96755.00;;;;8241645;28;20239;-74
2022/07/15 09:48:19;;;;;;;1.98;1.80;;;;;30.90;96765.00;;;;8247416;28;20313;-74
2022/07/15 09:52:22;;;;;;;8.77;1.70;;;;;31.20;96760.00;;;;8240618;28;20954;-73
2022/07/15 09:56:26;;;;;;;2.58;1.75;;;;;32.00;96762.00;;;;8241130;28;20328;-73
2022/07/15 10:00:38;;;;;;;4.45;1.77;;;;;33.00;96759.00;;;;8200065;28;20222;-73
2022/07/15 10:04:54;;;;;;;2.72;1.77;;;;;32.30;96760.00;;;;8176581;28;21035;-72
2022/07/15 10:08:59;;;;;;;3.15;1.85;;;;;31.70;96759.00;;;;8208218;28;20312;-71
2022/07/15 10:13:20;;;;;;;2.08;1.77;;;;;31.90;96757.00;;;;8210905;28;20253;-72
2022/07/15 10:18:15;;;;;;;2.90;1.70;;;;;31.80;96751.00;;;;8213869;28;20265;-72
2022/07/15 10:22:40;;;;;;;5.47;1.88;;;;;31.70;96762.00;;;;8209144;28;22756;-71
2022/07/15 10:26:56;;;;;;;1.90;1.80;;;;;31.80;96759.00;;;;8222605;28;20311;-73
2022/07/15 10:31:16;;;;;;;2.10;1.90;;;;;31.70;96749.00;;;;8213707;28;20322;-74
2022/07/15 10:35:36;;;;;;;2.60;1.90;;;;;31.30;96760.00;;;;8217982;28;20226;-74
2022/07/15 10:40:07;;;;;;;5.35;2.28;;;;;31.20;96763.00;;;;8216085;28;20295;-74
2022/07/15 10:44:11;;;;;;;3.42;2.00;;;;;31.30;96756.00;;;;8201211;28;20233;-73
2022/07/15 10:48:28;;;;;;;2.38;2.03;;;;;31.60;96763.00;;;;8203162;28;20631;-73
2022/07/15 10:52:32;;;;;;;4.85;1.80;;;;;32.70;96750.00;;;;8204971;28;20684;-74
2022/07/15 10:56:38;;;;;;;2.00;1.90;;;;;34.10;96740.00;;;;8215767;28;20342;-73
2022/07/15 11:00:49;;;;;;;1.80;1.63;;;;;33.80;96757.00;;;;8211788;28;20227;-73
2022/07/15 11:05:14;;;;;;;1.67;1.45;;;;;32.60;96754.00;;;;8240382;28;20229;-73
2022/07/15 11:09:45;;;;;;;2.08;1.70;;;;;30.70;96758.00;;;;8242256;28;20594;-73
2022/07/15 11:13:50;;;;;;;2.40;1.75;;;;;30.80;96744.00;;;;8246179;28;20269;-76
2022/07/15 11:17:56;;;;;;;4.43;2.17;;;;;31.10;96741.00;;;;8246938;28;20313;-84
2022/07/15 11:22:05;;;;;;;2.45;1.80;;;;;31.10;96741.00;;;;8247999;28;20242;-69
2022/07/15 11:26:08;;;;;;;2.20;2.00;;;;;29.80;96729.00;;;;8252068;28;20429;-69
2022/07/15 11:30:13;;;;;;;3.28;1.90;;;;;29.50;96735.00;;;;8243862;28;21120;-75
2022/07/15 11:34:18;;;;;;;2.30;1.90;;;;;29.40;96733.00;;;;8241572;28;20691;-83
2022/07/15 11:38:24;;;;;;;2.67;2.25;;;;;30.50;96727.00;;;;8248034;28;20302;-82
2022/07/15 11:46:50;;;;;;;4.97;2.00;;;;;32.50;96719.00;;;;8248894;28;20230;-75
2022/07/15 11:50:58;;;;;;;6.10;2.00;;;;;31.40;96721.00;;;;8245960;28;20249;-73
2022/07/15 11:55:06;;;;;;;5.22;1.83;;;;;30.20;96721.00;;;;8249279;28;20257;-75
2022/07/15 11:59:10;;;;;;;4.30;2.08;;;;;30.40;96718.00;;;;8252558;28;20218;-75
2022/07/15 12:03:14;;;;;;;5.63;2.17;;;;;30.20;96711.00;;;;8247684;28;20749;-74
2022/07/15 12:07:19;;;;;;;4.22;2.08;;;;;29.90;96713.00;;;;8246500;28;20226;-75
2022/07/15 12:11:24;;;;;;;5.78;2.13;;;;;30.10;96705.00;;;;8249572;28;20237;-75
2022/07/15 12:15:28;;;;;;;3.38;1.95;;;;;31.50;96701.00;;;;8249660;28;20238;-75
2022/07/15 12:19:33;;;;;;;4.38;2.05;;;;;31.90;96709.00;;;;8248074;28;20599;-74
2022/07/15 12:23:37;;;;;;;6.10;1.88;;;;;31.80;96694.00;;;;8250922;28;20329;-75
2022/07/15 12:27:40;;;;;;;3.50;1.95;;;;;32.50;96691.00;;;;8244334;28;20302;-74
2022/07/15 12:31:44;;;;;;;8.30;2.10;;;;;33.30;96696.00;;;;8246390;28;20313;-75
2022/07/15 12:35:49;;;;;;;3.53;1.90;;;;;33.20;96702.00;;;;8250799;28;20238;-75
2022/07/15 12:39:58;;;;;;;5.30;2.08;;;;;32.00;96690.00;;;;8249114;28;20219;-75
2022/07/15 12:44:03;;;;;;;4.38;2.10;;;;;31.40;96689.00;;;;8246251;28;20225;-75
2022/07/15 12:48:08;;;;;;;4.65;2.17;;;;;31.40;96684.00;;;;8251103;28;20309;-74
2022/07/15 12:52:23;;;;;;;5.70;2.00;;;;;31.70;96685.00;;;;8247441;28;20227;-75
2022/07/15 12:56:26;;;;;;;3.25;2.00;;;;;30.90;96671.00;;;;8248455;28;20430;-74
2022/07/15 13:00:30;;;;;;;4.47;2.08;;;;;30.20;96688.00;;;;8247015;28;20223;-75
2022/07/15 13:04:34;;;;;;;3.03;1.73;;;;;29.50;96683.00;;;;8246290;28;20222;-75
2022/07/15 13:08:40;;;;;;;4.05;2.22;;;;;29.00;96678.00;;;;8243054;28;20836;-74
2022/07/15 13:12:43;;;;;;;4.32;2.05;;;;;28.90;96674.00;;;;8242161;28;20719;-76
2022/07/15 13:16:46;;;;;;;4.38;2.08;;;;;29.40;96671.00;;;;8243532;28;20235;-75
2022/07/15 13:20:50;;;;;;;2.78;2.17;;;;;29.60;96681.00;;;;8246102;28;20272;-74
2022/07/15 13:24:55;;;;;;;6.47;2.03;;;;;30.20;96673.00;;;;8247422;28;20250;-76
2022/07/15 13:28:58;;;;;;;4.25;1.98;;;;;30.50;96668.00;;;;8247951;28;20461;-75
2022/07/15 13:33:01;;;;;;;4.63;2.40;;;;;30.60;96663.00;;;;8249942;28;20702;-75
2022/07/15 13:37:05;;;;;;;2.90;1.88;;;;;30.10;96663.00;;;;8248254;28;20923;-77
2022/07/15 13:41:09;;;;;;;2.83;2.28;;;;;30.20;96657.00;;;;8248958;28;20714;-75
2022/07/15 13:45:13;;;;;;;2.33;2.03;;;;;30.70;96649.00;;;;8242928;28;20313;-75
2022/07/15 13:49:16;;;;;;;2.08;1.95;;;;;31.50;96655.00;;;;8244630;28;20318;-73
2022/07/15 13:53:19;;;;;;;2.47;2.28;;;;;32.10;96658.00;;;;8246245;28;20235;-74
2022/07/15 13:57:24;;;;;;;3.63;1.90;;;;;31.80;96669.00;;;;8250056;28;20229;-74
2022/07/15 14:01:29;;;;;;;2.63;1.88;;;;;31.30;96670.00;;;;8245886;28;20239;-75
2022/07/15 14:05:32;;;;;;;4.40;2.20;;;;;31.80;96663.00;;;;8249200;28;20513;-75
2022/07/15 14:09:35;;;;;;;4.05;2.08;;;;;32.50;96655.00;;;;8243148;28;20306;-75
2022/07/15 14:13:48;;;;;;;3.78;2.17;;;;;32.90;96660.00;;;;8248197;28;20235;-75
2022/07/15 14:17:51;;;;;;;2.55;1.92;;;;;31.80;96665.00;;;;8231979;28;20326;-76
2022/07/15 14:21:54;;;;;;;2.40;2.20;;;;;31.80;96661.00;;;;8242946;28;20258;-75
2022/07/15 14:25:58;;;;;;;3.63;2.35;;;;;32.90;96651.00;;;;8250104;28;20261;-76
2022/07/15 14:30:02;;;;;;;2.85;2.05;;;;;33.50;96651.00;;;;8245407;28;20234;-76
2022/07/15 14:34:11;;;;;;;3.28;2.03;;;;;32.60;96657.00;;;;8240135;28;20227;-75
2022/07/15 14:38:15;;;;;;;5.82;2.40;;;;;31.20;96653.00;;;;8242408;28;20227;-74
2022/07/15 14:42:23;;;;;;;5.38;1.92;;;;;30.60;96647.00;;;;8242942;28;20258;-74
2022/07/15 14:46:28;;;;;;;3.33;2.25;;;;;30.00;96634.00;;;;8245694;28;20691;-74
2022/07/15 14:50:32;;;;;;;4.53;2.13;;;;;29.20;96633.00;;;;8248400;28;20230;-75
2022/07/15 14:54:35;;;;;;;2.92;2.08;;;;;29.20;96636.00;;;;8244937;28;20706;-75
2022/07/15 14:58:39;;;;;;;3.78;2.13;;;;;29.20;96636.00;;;;8237909;28;20325;-75
2022/07/15 15:02:43;;;;;;;3.33;2.20;;;;;28.80;96618.00;;;;8236762;28;20345;-76
2022/07/15 15:06:47;;;;;;;4.70;2.03;;;;;29.20;96622.00;;;;8247706;28;20274;-75
2022/07/15 15:10:50;;;;;;;1.70;1.60;;;;;29.50;96624.00;;;;8243995;28;20870;-75
2022/07/15 15:14:54;;;;;;;3.65;2.10;;;;;30.00;96632.00;;;;8240958;28;20318;-76
2022/07/15 15:18:59;;;;;;;2.30;2.10;;;;;30.90;96627.00;;;;8237318;28;20313;-75
2022/07/15 15:23:02;;;;;;;3.45;1.92;;;;;30.70;96632.00;;;;8230775;28;20232;-79
2022/07/15 15:27:06;;;;;;;4.35;2.10;;;;;30.10;96623.00;;;;8243687;28;20330;-75
2022/07/15 15:31:09;;;;;;;2.58;1.92;;;;;30.40;96623.00;;;;8229492;28;20242;-75
2022/07/15 15:35:14;;;;;;;4.25;2.03;;;;;30.70;96627.00;;;;8237050;28;20238;-76
2022/07/15 15:39:17;;;;;;;2.20;2.00;;;;;30.70;96625.00;;;;8236106;28;20764;-75
2022/07/15 15:43:20;;;;;;;4.07;2.20;;;;;30.70;96625.00;;;;8234663;28;20271;-75
2022/07/15 15:47:24;;;;;;;3.72;2.08;;;;;30.60;96628.00;;;;8246979;28;20244;-74
2022/07/15 15:51:28;;;;;;;4.18;1.90;;;;;30.80;96616.00;;;;8248908;28;20218;-75
2022/07/15 15:55:32;;;;;;;2.20;1.83;;;;;31.10;96615.00;;;;8235290;28;20994;-76
2022/07/15 15:59:35;;;;;;;2.40;2.20;;;;;30.90;96618.00;;;;8246410;28;20348;-75
2022/07/15 16:03:38;;;;;;;2.67;2.20;;;;;30.50;96609.00;;;;8240172;28;20313;-75
2022/07/15 16:07:43;;;;;;;2.75;2.20;;;;;30.50;96601.00;;;;8242140;28;20219;-75
2022/07/15 16:11:46;;;;;;;6.50;2.10;;;;;30.90;96614.00;;;;8252023;28;20230;-76
2022/07/15 16:15:49;;;;;;;3.17;2.00;;;;;31.00;96607.00;;;;8253392;28;20262;-72
2022/07/15 16:19:52;;;;;;;2.20;2.00;;;;;31.20;96612.00;;;;8243718;28;20218;-76
2022/07/15 16:23:57;;;;;;;5.20;2.15;;;;;31.00;96610.00;;;;8245459;28;20676;-75
2022/07/15 16:28:01;;;;;;;2.60;1.90;;;;;30.60;96616.00;;;;8247173;28;20751;-76
2022/07/15 16:32:06;;;;;;;5.13;2.08;;;;;30.90;96612.00;;;;8254764;28;20238;-75
2022/07/15 16:36:09;;;;;;;2.88;1.80;;;;;30.90;96623.00;;;;8242159;28;20223;-76
2022/07/15 16:40:14;;;;;;;3.53;1.90;;;;;30.60;96615.00;;;;8250422;28;20309;-75
2022/07/15 16:44:17;;;;;;;3.25;2.13;;;;;31.00;96611.00;;;;8253974;28;20238;-74
2022/07/15 16:48:23;;;;;;;3.65;2.33;;;;;30.70;96612.00;;;;8245113;28;20317;-76
2022/07/15 16:52:31;;;;;;;3.72;2.17;;;;;30.90;96608.00;;;;8242336;28;20230;-76
2022/07/15 16:56:36;;;;;;;2.40;2.10;;;;;31.00;96606.00;;;;8242508;28;20330;-74
2022/07/15 17:00:40;;;;;;;6.13;2.17;;;;;31.30;96609.00;;;;8249386;28;20222;-75
2022/07/15 17:04:43;;;;;;;3.75;2.00;;;;;31.40;96611.00;;;;8249596;28;20231;-74
2022/07/15 17:08:47;;;;;;;7.10;2.30;;;;;31.20;96611.00;;;;8244166;28;20784;-75
2022/07/15 17:12:52;;;;;;;2.97;2.40;;;;;31.20;96605.00;;;;8238502;28;20301;-75
2022/07/15 17:16:56;;;;;;;5.10;2.15;;;;;31.20;96611.00;;;;8235258;28;20235;-76
2022/07/15 17:20:59;;;;;;;4.88;2.08;;;;;31.30;96610.00;;;;8241260;28;20341;-76
2022/07/15 17:25:02;;;;;;;1.85;1.73;;;;;31.20;96608.00;;;;8251403;28;20241;-76
2022/07/15 17:29:07;;;;;;;2.80;1.88;;;;;31.10;96609.00;;;;8251741;28;20230;-76
2022/07/15 17:33:10;;;;;;;2.42;2.05;;;;;30.90;96600.00;;;;8245045;28;20305;-77
2022/07/15 17:37:27;;;;;;;2.55;2.17;;;;;30.90;96614.00;;;;8238483;28;20772;-76
2022/07/15 17:41:31;;;;;;;4.70;2.17;;;;;30.70;96612.00;;;;8235117;28;20246;-77
2022/07/15 17:45:38;;;;;;;5.10;2.03;;;;;30.70;96619.00;;;;8246415;28;20350;-76
2022/07/15 17:49:41;;;;;;;3.28;2.00;;;;;30.30;96619.00;;;;8250444;28;20733;-77
2022/07/15 17:53:46;;;;;;;2.85;2.03;;;;;30.00;96615.00;;;;8251856;28;20306;-77
2022/07/15 17:57:49;;;;;;;2.15;1.90;;;;;29.70;96625.00;;;;8247702;28;20229;-77
2022/07/15 18:01:54;;;;;;;4.53;1.70;;;;;29.30;96624.00;;;;8241104;28;20239;-77
2022/07/15 18:05:57;;;;;;;4.88;1.92;;;;;28.40;96620.00;;;;8248492;28;20309;-76
2022/07/15 18:10:00;;;;;;;6.47;2.00;;;;;27.40;96624.00;;;;8252018;28;20261;-77
2022/07/15 18:14:04;;;;;;;2.83;2.10;;;;;26.60;96621.00;;;;8240026;28;20962;-76
2022/07/15 18:18:08;;;;;;;4.55;2.20;;;;;25.90;96620.00;;;;8241106;28;20640;-76
2022/07/15 18:22:12;;;;;;;5.18;1.90;;;;;25.40;96624.00;;;;8244140;28;20262;-76
2022/07/15 18:26:15;;;;;;;2.40;2.13;;;;;25.00;96622.00;;;;8225795;28;20314;-76
2022/07/15 18:30:25;;;;;;;5.53;2.25;;;;;24.60;96630.00;;;;8251412;28;20281;-76
2022/07/15 18:34:29;;;;;;;2.00;1.90;;;;;24.30;96626.00;;;;8252017;28;20333;-77
2022/07/15 18:38:32;;;;;;;3.50;2.05;;;;;24.10;96622.00;;;;8242896;28;20660;-77
2022/07/15 18:42:36;;;;;;;7.70;2.45;;;;;23.90;96633.00;;;;8244523;28;20318;-77
2022/07/15 18:46:39;;;;;;;2.47;1.98;;;;;23.70;96632.00;;;;8244275;28;20234;-77
2022/07/15 18:50:44;;;;;;;4.43;2.40;;;;;23.50;96636.00;;;;8242957;28;20846;-73
2022/07/15 18:54:47;;;;;;;4.72;2.30;;;;;23.40;96631.00;;;;8225876;28;20240;-82
2022/07/15 18:58:52;;;;;;;4.30;2.13;;;;;23.30;96643.00;;;;8233437;28;20463;-81
2022/07/15 19:02:55;;;;;;;2.03;1.85;;;;;23.10;96639.00;;;;8245736;28;20239;-80
2022/07/15 19:07:00;;;;;;;4.97;2.30;;;;;22.90;96639.00;;;;8243874;28;20230;-80
2022/07/15 19:11:04;;;;;;;4.93;2.42;;;;;22.70;96650.00;;;;8239382;28;20258;-80
2022/07/15 19:15:07;;;;;;;4.28;2.20;;;;;22.50;96648.00;;;;8244251;28;20236;-79
2022/07/15 19:19:11;;;;;;;4.43;2.20;;;;;22.20;96650.00;;;;8233006;28;20313;-85
2022/07/15 19:23:16;;;;;;;4.18;2.08;;;;;21.90;96649.00;;;;8238854;28;20699;-81
2022/07/15 19:27:19;;;;;;;2.40;2.20;;;;;21.60;96658.00;;;;8234905;28;20230;-84
2022/07/15 19:31:24;;;;;;;8.20;2.50;;;;;21.40;96659.00;;;;8236875;28;20257;-79
2022/07/15 19:35:28;;;;;;;6.25;2.05;;;;;21.20;96663.00;;;;8231343;28;20313;-86
2022/07/15 19:39:32;;;;;;;7.63;3.03;;;;;21.00;96669.00;;;;8242391;28;20594;-86
2022/07/15 19:43:36;;;;;;;8.70;2.20;;;;;20.80;96664.00;;;;8248598;28;20238;-84
2022/07/15 19:47:39;;;;;;;4.72;2.40;;;;;20.70;96677.00;;;;8246556;28;20253;-80
2022/07/15 19:51:43;;;;;;;3.17;2.13;;;;;20.50;96677.00;;;;8248625;28;20250;-84
2022/07/15 19:55:48;;;;;;;5.85;2.22;;;;;20.30;96672.00;;;;8245699;28;20257;-81
2022/07/15 20:04:12;;;;;;;2.50;2.30;;;;;20.00;96681.00;;;;8236193;28;20230;-82
2022/07/15 20:08:15;;;;;;;4.20;2.38;;;;;20.00;96687.00;;;;8247373;28;20222;-85
2022/07/15 20:12:22;;;;;;;4.68;2.53;;;;;20.00;96684.00;;;;8239871;28;20266;-84
2022/07/15 20:16:25;;;;;;;11.30;2.70;;;;;20.00;96677.00;;;;8240695;28;20970;-84
2022/07/15 20:20:29;;;;;;;2.88;2.08;;;;;19.90;96679.00;;;;8255422;28;20230;-84
2022/07/15 20:24:33;;;;;;;3.42;2.08;;;;;19.80;96685.00;;;;8231610;28;20673;-79
2022/07/15 20:28:37;;;;;;;3.95;2.08;;;;;19.70;96681.00;;;;8235789;28;20314;-81
2022/07/15 20:32:41;;;;;;;3.50;2.03;;;;;19.60;96685.00;;;;8241918;28;20226;-81
2022/07/15 20:36:44;;;;;;;5.30;2.40;;;;;19.60;96686.00;;;;8244621;28;20226;-80
2022/07/15 20:40:48;;;;;;;4.13;2.30;;;;;19.50;96683.00;;;;8257360;28;20807;-75
2022/07/15 20:44:53;;;;;;;5.18;2.30;;;;;19.50;96686.00;;;;8242477;28;20242;-79